Meteo Giornale » Osservazioni meteo Stati Uniti (USA) » Danbury

ore: 02:53 - Osservazioni Meteo Danbury
Lat. 41° 22' N Lon. 73° 29' W Alt. 139 metri s.l.m.

coperto America/New_York

16 °C

Coperto

Temp. 24 Ore

10 °C

24 °C

Est

9.3 Km/h

Dew point 10 °C

Umidità 67 %

Visibilità  10 Km

Il sole sorge alle ore 05:20

Il sole tramonta alle ore 20:33

Data e Ora Cielo e Fenomeni T °C DP °C Um. % Pres. hPa Vis. km Vento km/h
Oggi h: 02:53 coperto Coperto 16 10 67 1026 10 E 9.3
Oggi h: 02:34 coperto Coperto 17 9 59 1026 10 NE 7.4
Oggi h: 01:53 coperto Coperto 17 8 55 1027 10 N 0
Oggi h: 01:18 coperto Coperto 16 8 58 1027 10 N 5.5
Oggi h: 00:53 coperto Coperto 16 8 58 1027 10 E 7.4
Ieri h: 23:53 coperto Coperto 13 8 71 1028 10 N 0
Ieri h: 22:53 poco_nuvoloso Poco Nuvoloso 14 7 62 1028 10 S/SE 7.4
Ieri h: 21:53 sereno Sereno 16 7 55 1028 10 N 0
Ieri h: 20:53 sereno Sereno 18 8 51 1028 10 N 0
Ieri h: 19:53 sereno Sereno 19 11 59 1027 10 S/SE 9.3
Ieri h: 18:53 sereno Sereno 22 9 43 1027 10 SE 16.7
Ieri h: 17:53 sereno Sereno 23 9 40 1027 10 S/SE 14.8
Ieri h: 16:53 sereno Sereno 24 10 41 1027 10 SE 14.8
Ieri h: 15:53 sereno Sereno 24 9 38 1028 10 S 14.8
Ieri h: 14:53 sereno Sereno 24 6 31 1029 10 N 7.4
Ieri h: 13:53 sereno Sereno 24 7 33 1029 10 S/SE 16.7
Ieri h: 12:53 sereno Sereno 24 8 35 1029 10 S/SO 9.3
Ieri h: 11:53 sereno Sereno 24 9 38 1029 10 S/SE 13
Ieri h: 09:53 sereno Sereno 22 11 49 1029 10 N 7.4
Ieri h: 08:53 sereno Sereno 20 12 59 1029 10 N/NE 7.4
Ieri h: 07:53 sereno Sereno 16 12 77 1029 10 N 0
Ieri h: 06:53 sereno Sereno 13 11 87 1029 10 N 0
Ieri h: 06:20 poco_nuvoloso Poco Nuvoloso 11 9 87 1029 10 N 0
Ieri h: 05:53 sereno Sereno 10 8 87 1029 10 N 0
Ieri h: 04:53 sereno Sereno 10 8 87 1028 10 N 0
Ieri h: 03:53 sereno Sereno 10 8 87 1027 10 N 0